logo
Search for airport 
image banner adimage banner adimage banner ad
image banner ad

YCHL - Charlton Airport

Located in Charlton, Australia

ICAO - YCHL, IATA -

Data provided by Airmate  

General information

Coordinates: S36°17'26" E143°19'52"
Elevation is 458 feet MSL.
Magnetic variation is 10° East
View others Airports in Tasmania

Operational data

Special qualification required
Current time UTC:
Current local time:
Weather at : - ( 0 km )
METAR: YMLT 131631Z AUTO 35007KT 8000 // NCD 09/09 Q1019 RF00.0/000.2
View NOTAMs / SUP AIP / TFR affecting this airport [VIEW]
Communications frequencies: [VIEW]

Runways:

RWY identifierQFULength (ft)Width (ft)SurfaceLDA (ft)
0338°372658ASPH
21218°372658ASPH
YCHL00UNK

Airport contact information

Address: Charlton Australia

Satellite view of YCHL